Hlavní strana
METAR-TAF:

METAR-TAF

Letiště :

Oslo, Norsko

Letiště Oslo

zeměpisná šířka: 60-12N, zeměpisná délka: 011-05E, výška: 208 m

Aktuální stav počasí

Zpráva byla vytvořena před 28 minutami, v 14:20 UTC
Jihozápadní vítr 9 kt
Teplota 10°C
Vlhkost vzduchu 53%
Tlak 994 hPa
Viditelnost 10 km a více
Oblačno až skoro zataženo ve výšce 2900 ft

METAR: ENGM 241420Z 22009KT 9999 BKN029 10/01 Q0994 NOSIG

Čas: 16:48 (14:48 UTC)

Předpověď počasí

Předpověď platná od 24 v 12 UTC do 25 v 12 UTC
Jihozápadní vítr 8 kt
Viditelnost 10 km a více
Polojasno ve výšce 3000 ft
Oblačno až skoro zataženo ve výšce 5000 ft

TAF: ENGM 2412/2512 22008KT 9999 SCT030 BKN050

Stav a předpovědi počasí z více než 4 000 letišť (zprávy METAR a TAF).

Červené a žluté tečky na mapě představují dostupné meteorologické stanice.

Když kurzor umístíte na tečku, zobrazí se název stanice.

Pak kliknutím zobrazíte stav a předpověď počasí.

Chcete-li změnit mapu, kliknutím na zelené tlačítko se znaménkem +mapu přiblížíte, kliknutím na zelené tlačítko se znaménkem – mapu oddálíte a kliknutím na zelené šipky přejdete na sousední mapy.


METAR-TAF: